Vinemont, Pennsylvania
Current Conditions -  °F | °C
As of 11:20 AM on Monday 26 Jan 2015 (Local Time) from KRDG Reporting Station
Light Snow Light Snow  
Wind Chill: 11°   Ceiling: 2100
Heat Index: 21°   Visibility: 1mi
Dew Point: 16°   Wind: 9mph
Humidity: 81%   Direction: 30°NNE
Pressure: 29.87"   Gusts: NA
Location:  40.2731°N, 76.0902°W
Report Text: KRDG 261620Z 03008KT 1SM R36/4500VP6000FT -SN BKN021 OVC033 M06/M09 A2987 RMK AO2 TWR VIS 2 1/2 P0000 T10611089
Loading
Personal Weather Stations






























Interactive Weather Map New forecast layout! Learn more

10-Day Weather Forecast

Advertisements
Track Severe Weather on mobile